logo
Search for airport 
image banner adimage banner adimage banner ad
image banner ad

SWTW - Bs Tower

Located in Fortaleza, Brazil

ICAO - SWTW, IATA -

Data provided by Airmate  

General information

Coordinates: S3°43'52" W38°30'57"
Elevation is 354 feet MSL.
Magnetic variation is -20.730403656° East
View others Airports in Ceará

Operational data

Special qualification required
Current time UTC:
Current local time:
Weather at : SBFZ - Pinto Martins ( 5 km )
METAR: SBFZ 172300Z 17005KT CAVOK 27/22 Q1013
TAF: TAF SBFZ 172100Z 1800/1824 12010KT 8000 SCT020 FEW025TCU TN25/1808Z TX31/1816Z PROB40 1806/1810 5000 SHRA BECMG 1812/1814 11015KT SCT025 PROB40 1818/1822 4000 SHRA BKN015 FEW030TCU RMK PGU
View NOTAMs / SUP AIP / TFR affecting this airport [VIEW]
Communications frequencies: [VIEW]

Runways:

Airport contact information

Address: Fortaleza Brazil

Satellite view of SWTW